sensor_id;sensor_type;location;lat;lon;timestamp;pressure;altitude;pressure_sealevel;temperature;humidity
27040;BME280;14589;51.578;7.306;2023-08-06T00:02:24;100034.19;;;15.23;100.00
27040;BME280;14589;51.578;7.306;2023-08-06T00:04:54;100040.75;;;15.29;100.00
27040;BME280;14589;51.578;7.306;2023-08-06T00:07:24;100027.72;;;15.31;100.00
27040;BME280;14589;51.578;7.306;2023-08-06T00:09:55;100026.91;;;15.30;100.00
27040;BME280;14589;51.578;7.306;2023-08-06T00:12:25;100036.31;;;15.28;100.00
27040;BME280;14589;51.578;7.306;2023-08-06T00:14:59;100044.13;;;15.31;100.00
27040;BME280;14589;51.578;7.306;2023-08-06T00:17:29;100035.28;;;15.29;100.00
27040;BME280;14589;51.578;7.306;2023-08-06T00:20:00;100038.66;;;15.31;100.00
27040;BME280;14589;51.578;7.306;2023-08-06T00:22:38;100031.53;;;15.30;100.00
27040;BME280;14589;51.578;7.306;2023-08-06T00:25:08;100030.88;;;15.28;100.00
27040;BME280;14589;51.578;7.306;2023-08-06T00:27:39;100016.09;;;15.22;100.00
27040;BME280;14589;51.578;7.306;2023-08-06T00:30:09;100019.50;;;15.24;100.00
27040;BME280;14589;51.578;7.306;2023-08-06T00:32:40;100013.56;;;15.21;100.00
27040;BME280;14589;51.578;7.306;2023-08-06T00:35:10;100014.41;;;15.21;100.00
27040;BME280;14589;51.578;7.306;2023-08-06T00:37:41;100013.13;;;15.17;100.00
27040;BME280;14589;51.578;7.306;2023-08-06T00:40:11;100005.31;;;15.14;100.00
27040;BME280;14589;51.578;7.306;2023-08-06T00:42:41;100011.44;;;15.16;100.00
27040;BME280;14589;51.578;7.306;2023-08-06T00:45:14;100014.34;;;15.15;100.00
27040;BME280;14589;51.578;7.306;2023-08-06T00:47:45;100004.66;;;15.12;100.00
27040;BME280;14589;51.578;7.306;2023-08-06T00:50:16;100010.59;;;15.16;100.00
27040;BME280;14589;51.578;7.306;2023-08-06T00:52:48;100008.88;;;15.15;100.00
27040;BME280;14589;51.578;7.306;2023-08-06T00:55:19;100015.25;;;15.22;100.00
27040;BME280;14589;51.578;7.306;2023-08-06T00:57:49;100018.19;;;15.20;100.00
27040;BME280;14589;51.578;7.306;2023-08-06T01:00:22;100012.34;;;15.23;100.00
27040;BME280;14589;51.578;7.306;2023-08-06T01:02:54;100000.94;;;15.20;100.00
27040;BME280;14589;51.578;7.306;2023-08-06T01:05:25;99998.88;;;15.22;100.00
27040;BME280;14589;51.578;7.306;2023-08-06T01:08:29;99994.44;;;15.21;100.00
27040;BME280;14589;51.578;7.306;2023-08-06T01:11:24;99993.16;;;15.17;100.00
27040;BME280;14589;51.578;7.306;2023-08-06T01:14:06;99987.47;;;15.18;100.00
27040;BME280;14589;51.578;7.306;2023-08-06T01:16:39;99981.19;;;15.18;100.00
27040;BME280;14589;51.578;7.306;2023-08-06T01:19:17;99978.47;;;15.18;100.00
27040;BME280;14589;51.578;7.306;2023-08-06T01:21:51;99982.00;;;15.18;100.00
27040;BME280;14589;51.578;7.306;2023-08-06T01:24:22;99972.59;;;15.21;100.00
27040;BME280;14589;51.578;7.306;2023-08-06T01:27:04;99977.41;;;15.19;100.00
27040;BME280;14589;51.578;7.306;2023-08-06T01:30:02;99964.34;;;15.14;100.00
27040;BME280;14589;51.578;7.306;2023-08-06T01:32:35;99963.13;;;15.17;100.00
27040;BME280;14589;51.578;7.306;2023-08-06T01:35:10;99963.13;;;15.17;100.00
27040;BME280;14589;51.578;7.306;2023-08-06T01:37:41;99962.69;;;15.20;100.00
27040;BME280;14589;51.578;7.306;2023-08-06T01:40:13;99960.44;;;15.23;100.00
27040;BME280;14589;51.578;7.306;2023-08-06T01:42:43;99961.47;;;15.22;100.00
27040;BME280;14589;51.578;7.306;2023-08-06T01:45:14;99957.44;;;15.18;100.00
27040;BME280;14589;51.578;7.306;2023-08-06T01:47:44;99950.09;;;15.19;100.00
27040;BME280;14589;51.578;7.306;2023-08-06T01:50:15;99958.03;;;15.14;100.00
27040;BME280;14589;51.578;7.306;2023-08-06T01:52:45;99955.78;;;15.17;100.00
27040;BME280;14589;51.578;7.306;2023-08-06T01:55:15;99962.06;;;15.18;100.00
27040;BME280;14589;51.578;7.306;2023-08-06T01:57:46;99952.56;;;15.14;100.00
27040;BME280;14589;51.578;7.306;2023-08-06T02:00:17;99958.28;;;15.19;100.00
27040;BME280;14589;51.578;7.306;2023-08-06T02:02:47;99956.63;;;15.18;100.00
27040;BME280;14589;51.578;7.306;2023-08-06T02:05:17;99948.81;;;15.15;100.00
27040;BME280;14589;51.578;7.306;2023-08-06T02:07:48;99946.91;;;15.15;100.00
27040;BME280;14589;51.578;7.306;2023-08-06T02:10:18;99949.00;;;15.13;100.00
27040;BME280;14589;51.578;7.306;2023-08-06T02:12:49;99952.19;;;15.17;100.00
27040;BME280;14589;51.578;7.306;2023-08-06T02:15:19;99946.72;;;15.17;100.00
27040;BME280;14589;51.578;7.306;2023-08-06T02:17:50;99943.53;;;15.13;100.00
27040;BME280;14589;51.578;7.306;2023-08-06T02:20:20;99932.59;;;15.13;100.00
27040;BME280;14589;51.578;7.306;2023-08-06T02:22:51;99936.84;;;15.16;100.00
27040;BME280;14589;51.578;7.306;2023-08-06T02:25:21;99944.84;;;15.17;100.00
27040;BME280;14589;51.578;7.306;2023-08-06T02:27:52;99932.03;;;15.18;100.00
27040;BME280;14589;51.578;7.306;2023-08-06T02:30:22;99943.59;;;15.20;100.00
27040;BME280;14589;51.578;7.306;2023-08-06T02:32:53;99933.63;;;15.12;100.00
27040;BME280;14589;51.578;7.306;2023-08-06T02:35:24;99929.03;;;15.13;100.00
27040;BME280;14589;51.578;7.306;2023-08-06T02:37:55;99934.97;;;15.16;100.00
27040;BME280;14589;51.578;7.306;2023-08-06T02:40:26;99931.13;;;15.11;100.00
27040;BME280;14589;51.578;7.306;2023-08-06T02:42:56;99926.72;;;15.10;100.00
27040;BME280;14589;51.578;7.306;2023-08-06T02:45:29;99925.84;;;15.09;100.00
27040;BME280;14589;51.578;7.306;2023-08-06T02:47:59;99917.66;;;15.09;100.00
27040;BME280;14589;51.578;7.306;2023-08-06T02:50:29;99910.50;;;15.08;100.00
27040;BME280;14589;51.578;7.306;2023-08-06T02:53:00;99907.78;;;15.08;100.00
27040;BME280;14589;51.578;7.306;2023-08-06T02:55:32;99910.69;;;15.07;100.00
27040;BME280;14589;51.578;7.306;2023-08-06T02:58:04;99894.91;;;15.02;100.00
27040;BME280;14589;51.578;7.306;2023-08-06T03:00:39;99891.75;;;14.98;100.00
27040;BME280;14589;51.578;7.306;2023-08-06T03:03:11;99895.09;;;15.01;100.00
27040;BME280;14589;51.578;7.306;2023-08-06T03:05:53;99884.97;;;14.94;100.00
27040;BME280;14589;51.578;7.306;2023-08-06T03:08:30;99892.97;;;14.96;100.00
27040;BME280;14589;51.578;7.306;2023-08-06T03:11:03;99893.81;;;14.96;100.00
27040;BME280;14589;51.578;7.306;2023-08-06T03:13:34;99898.00;;;14.92;100.00
27040;BME280;14589;51.578;7.306;2023-08-06T03:16:05;99885.59;;;14.90;100.00
27040;BME280;14589;51.578;7.306;2023-08-06T03:18:36;99894.81;;;14.89;100.00
27040;BME280;14589;51.578;7.306;2023-08-06T03:21:09;99886.00;;;14.87;100.00
27040;BME280;14589;51.578;7.306;2023-08-06T03:23:39;99878.97;;;14.78;100.00
27040;BME280;14589;51.578;7.306;2023-08-06T03:26:10;99887.16;;;14.78;100.00
27040;BME280;14589;51.578;7.306;2023-08-06T03:28:42;99884.84;;;14.75;100.00
27040;BME280;14589;51.578;7.306;2023-08-06T03:31:12;99882.03;;;14.68;100.00
27040;BME280;14589;51.578;7.306;2023-08-06T03:33:46;99892.31;;;14.66;100.00
27040;BME280;14589;51.578;7.306;2023-08-06T03:36:20;99886.78;;;14.60;100.00
27040;BME280;14589;51.578;7.306;2023-08-06T03:38:51;99886.78;;;14.60;100.00
27040;BME280;14589;51.578;7.306;2023-08-06T03:41:22;99884.84;;;14.53;100.00
27040;BME280;14589;51.578;7.306;2023-08-06T03:43:52;99886.28;;;14.49;100.00
27040;BME280;14589;51.578;7.306;2023-08-06T03:46:28;99888.53;;;14.46;100.00
27040;BME280;14589;51.578;7.306;2023-08-06T03:48:58;99887.91;;;14.44;100.00
27040;BME280;14589;51.578;7.306;2023-08-06T03:51:29;99877.38;;;14.41;100.00
27040;BME280;14589;51.578;7.306;2023-08-06T03:54:00;99877.06;;;14.36;100.00
27040;BME280;14589;51.578;7.306;2023-08-06T03:56:31;99869.66;;;14.30;100.00
27040;BME280;14589;51.578;7.306;2023-08-06T03:59:01;99872.13;;;14.25;100.00
27040;BME280;14589;51.578;7.306;2023-08-06T04:01:32;99866.47;;;14.26;100.00
27040;BME280;14589;51.578;7.306;2023-08-06T04:04:02;99870.81;;;14.21;100.00
27040;BME280;14589;51.578;7.306;2023-08-06T04:06:33;99873.53;;;14.21;100.00
27040;BME280;14589;51.578;7.306;2023-08-06T04:09:03;99868.31;;;14.19;100.00
27040;BME280;14589;51.578;7.306;2023-08-06T04:11:35;99879.41;;;14.17;100.00
27040;BME280;14589;51.578;7.306;2023-08-06T04:14:06;99876.00;;;14.15;100.00
27040;BME280;14589;51.578;7.306;2023-08-06T04:16:37;99871.31;;;14.09;100.00
27040;BME280;14589;51.578;7.306;2023-08-06T04:19:07;99870.66;;;14.07;100.00
27040;BME280;14589;51.578;7.306;2023-08-06T04:21:38;99865.69;;;14.11;100.00
27040;BME280;14589;51.578;7.306;2023-08-06T04:24:08;99868.78;;;14.08;100.00
27040;BME280;14589;51.578;7.306;2023-08-06T04:26:39;99860.41;;;14.09;100.00
27040;BME280;14589;51.578;7.306;2023-08-06T04:29:09;99874.91;;;14.10;100.00
27040;BME280;14589;51.578;7.306;2023-08-06T04:31:39;99863.72;;;14.05;100.00
27040;BME280;14589;51.578;7.306;2023-08-06T04:34:10;99872.75;;;14.05;100.00
27040;BME280;14589;51.578;7.306;2023-08-06T04:36:42;99881.56;;;14.07;100.00
27040;BME280;14589;51.578;7.306;2023-08-06T04:39:14;99884.28;;;14.07;100.00
27040;BME280;14589;51.578;7.306;2023-08-06T04:41:44;99878.84;;;14.07;100.00
27040;BME280;14589;51.578;7.306;2023-08-06T04:44:14;99887.31;;;14.12;100.00
27040;BME280;14589;51.578;7.306;2023-08-06T04:46:45;99871.81;;;14.13;100.00
27040;BME280;14589;51.578;7.306;2023-08-06T04:49:15;99879.84;;;14.21;100.00
27040;BME280;14589;51.578;7.306;2023-08-06T04:51:46;99878.63;;;14.24;100.00
27040;BME280;14589;51.578;7.306;2023-08-06T04:54:16;99884.53;;;14.27;100.00
27040;BME280;14589;51.578;7.306;2023-08-06T04:56:46;99886.09;;;14.36;100.00
27040;BME280;14589;51.578;7.306;2023-08-06T04:59:17;99882.63;;;14.42;100.00
27040;BME280;14589;51.578;7.306;2023-08-06T05:01:47;99881.00;;;14.48;100.00
27040;BME280;14589;51.578;7.306;2023-08-06T05:04:18;99884.19;;;14.51;100.00
27040;BME280;14589;51.578;7.306;2023-08-06T05:06:48;99879.63;;;14.58;100.00
27040;BME280;14589;51.578;7.306;2023-08-06T05:09:18;99879.88;;;14.64;100.00
27040;BME280;14589;51.578;7.306;2023-08-06T05:11:50;99873.00;;;14.68;100.00
27040;BME280;14589;51.578;7.306;2023-08-06T05:14:20;99890.06;;;14.76;100.00
27040;BME280;14589;51.578;7.306;2023-08-06T05:16:50;99886.56;;;14.82;100.00
27040;BME280;14589;51.578;7.306;2023-08-06T05:19:21;99886.06;;;14.93;100.00
27040;BME280;14589;51.578;7.306;2023-08-06T05:21:51;99888.19;;;14.98;100.00
27040;BME280;14589;51.578;7.306;2023-08-06T05:24:21;99886.06;;;15.00;100.00
27040;BME280;14589;51.578;7.306;2023-08-06T05:26:52;99895.22;;;15.14;100.00
27040;BME280;14589;51.578;7.306;2023-08-06T05:29:22;99900.50;;;15.15;100.00
27040;BME280;14589;51.578;7.306;2023-08-06T05:31:52;99898.78;;;15.14;100.00
27040;BME280;14589;51.578;7.306;2023-08-06T05:34:23;99891.59;;;15.07;100.00
27040;BME280;14589;51.578;7.306;2023-08-06T05:36:53;99902.38;;;15.15;100.00
27040;BME280;14589;51.578;7.306;2023-08-06T05:39:23;99903.88;;;15.17;100.00
27040;BME280;14589;51.578;7.306;2023-08-06T05:41:54;99904.97;;;15.23;100.00
27040;BME280;14589;51.578;7.306;2023-08-06T05:44:25;99897.56;;;15.17;100.00
27040;BME280;14589;51.578;7.306;2023-08-06T05:46:55;99890.41;;;15.16;100.00
27040;BME280;14589;51.578;7.306;2023-08-06T05:49:26;99900.72;;;15.20;100.00
27040;BME280;14589;51.578;7.306;2023-08-06T05:51:56;99904.53;;;15.26;100.00
27040;BME280;14589;51.578;7.306;2023-08-06T05:54:26;99906.06;;;15.28;100.00
27040;BME280;14589;51.578;7.306;2023-08-06T05:56:57;99904.41;;;15.34;100.00
27040;BME280;14589;51.578;7.306;2023-08-06T05:59:27;99905.44;;;15.33;100.00
27040;BME280;14589;51.578;7.306;2023-08-06T06:01:58;99905.28;;;15.41;100.00
27040;BME280;14589;51.578;7.306;2023-08-06T06:04:28;99905.91;;;15.43;100.00
27040;BME280;14589;51.578;7.306;2023-08-06T06:06:58;99910.81;;;15.48;100.00
27040;BME280;14589;51.578;7.306;2023-08-06T06:09:29;99909.44;;;15.58;100.00
27040;BME280;14589;51.578;7.306;2023-08-06T06:11:59;99902.13;;;15.65;100.00
27040;BME280;14589;51.578;7.306;2023-08-06T06:14:29;99909.53;;;15.78;100.00
27040;BME280;14589;51.578;7.306;2023-08-06T06:17:00;99917.78;;;15.85;100.00
27040;BME280;14589;51.578;7.306;2023-08-06T06:19:31;99911.69;;;15.89;100.00
27040;BME280;14589;51.578;7.306;2023-08-06T06:22:01;99905.59;;;15.94;100.00
27040;BME280;14589;51.578;7.306;2023-08-06T06:24:31;99908.63;;;16.12;100.00
27040;BME280;14589;51.578;7.306;2023-08-06T06:27:02;99916.69;;;16.33;100.00
27040;BME280;14589;51.578;7.306;2023-08-06T06:29:32;99920.50;;;16.39;100.00
27040;BME280;14589;51.578;7.306;2023-08-06T06:32:03;99919.66;;;16.38;100.00
27040;BME280;14589;51.578;7.306;2023-08-06T06:34:33;99921.38;;;16.46;100.00
27040;BME280;14589;51.578;7.306;2023-08-06T06:37:04;99915.47;;;16.49;100.00
27040;BME280;14589;51.578;7.306;2023-08-06T06:39:34;99918.94;;;16.77;100.00
27040;BME280;14589;51.578;7.306;2023-08-06T06:42:05;99926.09;;;16.98;100.00
27040;BME280;14589;51.578;7.306;2023-08-06T06:44:41;99915.16;;;17.18;100.00
27040;BME280;14589;51.578;7.306;2023-08-06T06:47:12;99918.72;;;17.31;100.00
27040;BME280;14589;51.578;7.306;2023-08-06T06:49:42;99911.56;;;17.30;100.00
27040;BME280;14589;51.578;7.306;2023-08-06T06:52:12;99915.53;;;17.34;100.00
27040;BME280;14589;51.578;7.306;2023-08-06T06:54:43;99910.09;;;17.21;100.00
27040;BME280;14589;51.578;7.306;2023-08-06T06:57:13;99923.16;;;17.19;100.00
27040;BME280;14589;51.578;7.306;2023-08-06T06:59:43;99916.81;;;17.38;100.00
27040;BME280;14589;51.578;7.306;2023-08-06T07:02:14;99923.09;;;17.72;100.00
27040;BME280;14589;51.578;7.306;2023-08-06T07:04:44;99918.38;;;17.99;100.00
27040;BME280;14589;51.578;7.306;2023-08-06T07:07:15;99915.38;;;18.13;100.00
27040;BME280;14589;51.578;7.306;2023-08-06T07:09:45;99916.63;;;18.17;100.00
27040;BME280;14589;51.578;7.306;2023-08-06T07:12:15;99918.72;;;18.15;100.00
27040;BME280;14589;51.578;7.306;2023-08-06T07:14:46;99915.78;;;18.17;100.00
27040;BME280;14589;51.578;7.306;2023-08-06T07:17:16;99917.28;;;18.13;100.00
27040;BME280;14589;51.578;7.306;2023-08-06T07:19:46;99918.19;;;18.00;100.00
27040;BME280;14589;51.578;7.306;2023-08-06T07:22:17;99925.56;;;18.00;100.00
27040;BME280;14589;51.578;7.306;2023-08-06T07:24:47;99912.69;;;18.00;100.00
27040;BME280;14589;51.578;7.306;2023-08-06T07:27:17;99920.72;;;18.02;100.00
27040;BME280;14589;51.578;7.306;2023-08-06T07:29:48;99922.16;;;18.04;100.00
27040;BME280;14589;51.578;7.306;2023-08-06T07:32:18;99912.06;;;17.98;100.00
27040;BME280;14589;51.578;7.306;2023-08-06T07:34:49;99934.81;;;18.12;100.00
27040;BME280;14589;51.578;7.306;2023-08-06T07:37:19;99927.00;;;18.09;100.00
27040;BME280;14589;51.578;7.306;2023-08-06T07:39:49;99935.63;;;18.19;100.00
27040;BME280;14589;51.578;7.306;2023-08-06T07:42:20;99941.09;;;18.26;100.00
27040;BME280;14589;51.578;7.306;2023-08-06T07:44:55;99944.66;;;18.33;100.00
27040;BME280;14589;51.578;7.306;2023-08-06T07:47:26;99940.44;;;18.30;100.00
27040;BME280;14589;51.578;7.306;2023-08-06T07:49:56;99935.09;;;18.42;100.00
27040;BME280;14589;51.578;7.306;2023-08-06T07:52:27;99942.25;;;18.43;100.00
27040;BME280;14589;51.578;7.306;2023-08-06T07:54:57;99945.03;;;18.36;100.00
27040;BME280;14589;51.578;7.306;2023-08-06T07:57:28;99959.16;;;18.40;100.00
27040;BME280;14589;51.578;7.306;2023-08-06T07:59:59;99943.59;;;18.27;100.00
27040;BME280;14589;51.578;7.306;2023-08-06T08:02:29;99946.16;;;18.22;100.00
27040;BME280;14589;51.578;7.306;2023-08-06T08:05:00;99942.59;;;18.15;99.00
27040;BME280;14589;51.578;7.306;2023-08-06T08:07:30;99947.88;;;18.16;100.00
27040;BME280;14589;51.578;7.306;2023-08-06T08:10:01;99959.28;;;18.13;99.99
27040;BME280;14589;51.578;7.306;2023-08-06T08:12:31;99951.69;;;18.09;100.00
27040;BME280;14589;51.578;7.306;2023-08-06T08:15:02;99957.41;;;18.07;100.00
27040;BME280;14589;51.578;7.306;2023-08-06T08:17:33;99947.91;;;18.03;100.00
27040;BME280;14589;51.578;7.306;2023-08-06T08:20:05;99951.94;;;18.01;100.00
27040;BME280;14589;51.578;7.306;2023-08-06T08:22:35;99949.59;;;18.04;100.00
27040;BME280;14589;51.578;7.306;2023-08-06T08:25:06;99950.03;;;18.08;100.00
27040;BME280;14589;51.578;7.306;2023-08-06T08:27:36;99953.81;;;18.07;100.00
27040;BME280;14589;51.578;7.306;2023-08-06T08:30:07;99951.06;;;18.13;100.00
27040;BME280;14589;51.578;7.306;2023-08-06T08:32:38;99953.16;;;18.18;100.00
27040;BME280;14589;51.578;7.306;2023-08-06T08:35:08;99952.53;;;18.09;100.00
27040;BME280;14589;51.578;7.306;2023-08-06T08:37:39;99949.19;;;18.07;100.00
27040;BME280;14589;51.578;7.306;2023-08-06T08:40:09;99958.88;;;18.10;100.00
27040;BME280;14589;51.578;7.306;2023-08-06T08:42:40;99956.53;;;18.20;100.00
27040;BME280;14589;51.578;7.306;2023-08-06T08:45:14;99953.75;;;18.27;100.00
27040;BME280;14589;51.578;7.306;2023-08-06T08:47:45;99942.50;;;18.35;100.00
27040;BME280;14589;51.578;7.306;2023-08-06T08:50:17;99949.88;;;18.41;99.77
27040;BME280;14589;51.578;7.306;2023-08-06T08:52:50;99954.63;;;18.65;100.00
27040;BME280;14589;51.578;7.306;2023-08-06T08:55:21;99953.28;;;18.81;98.93
27040;BME280;14589;51.578;7.306;2023-08-06T08:57:52;99947.91;;;18.92;98.59
27040;BME280;14589;51.578;7.306;2023-08-06T09:00:22;99949.59;;;18.93;93.05
27040;BME280;14589;51.578;7.306;2023-08-06T09:02:53;99961.38;;;19.01;94.29
27040;BME280;14589;51.578;7.306;2023-08-06T09:05:26;99961.25;;;19.14;93.23
27040;BME280;14589;51.578;7.306;2023-08-06T09:08:05;99961.69;;;19.17;90.77
27040;BME280;14589;51.578;7.306;2023-08-06T09:10:36;99956.88;;;19.37;90.99
27040;BME280;14589;51.578;7.306;2023-08-06T09:13:07;99951.66;;;19.54;89.84
27040;BME280;14589;51.578;7.306;2023-08-06T09:15:38;99957.88;;;19.68;88.08
27040;BME280;14589;51.578;7.306;2023-08-06T09:18:10;99959.97;;;19.91;88.19
27040;BME280;14589;51.578;7.306;2023-08-06T09:20:41;99956.59;;;20.07;89.18
27040;BME280;14589;51.578;7.306;2023-08-06T09:23:11;99968.59;;;19.94;89.93
27040;BME280;14589;51.578;7.306;2023-08-06T09:25:42;99959.53;;;19.69;88.99
27040;BME280;14589;51.578;7.306;2023-08-06T09:28:12;99963.66;;;19.35;91.18
27040;BME280;14589;51.578;7.306;2023-08-06T09:30:42;99976.69;;;19.46;90.23
27040;BME280;14589;51.578;7.306;2023-08-06T09:33:18;99971.06;;;19.59;89.96
27040;BME280;14589;51.578;7.306;2023-08-06T09:35:48;99968.41;;;19.71;87.98
27040;BME280;14589;51.578;7.306;2023-08-06T09:38:19;99974.53;;;19.73;87.06
27040;BME280;14589;51.578;7.306;2023-08-06T09:40:49;99974.59;;;19.66;89.03
27040;BME280;14589;51.578;7.306;2023-08-06T09:43:19;99965.91;;;20.06;87.19
27040;BME280;14589;51.578;7.306;2023-08-06T09:45:50;99969.06;;;20.28;87.77
27040;BME280;14589;51.578;7.306;2023-08-06T09:48:24;99974.19;;;20.61;85.29
27040;BME280;14589;51.578;7.306;2023-08-06T09:50:55;99973.56;;;20.88;84.74
27040;BME280;14589;51.578;7.306;2023-08-06T09:53:26;99979.50;;;21.57;83.78
27040;BME280;14589;51.578;7.306;2023-08-06T09:55:57;99986.81;;;21.74;78.65
27040;BME280;14589;51.578;7.306;2023-08-06T09:58:31;99978.19;;;22.06;78.40
27040;BME280;14589;51.578;7.306;2023-08-06T10:01:02;99983.38;;;22.54;75.07
27040;BME280;14589;51.578;7.306;2023-08-06T10:03:33;99984.16;;;22.66;71.43
27040;BME280;14589;51.578;7.306;2023-08-06T10:06:04;99978.38;;;22.79;67.97
27040;BME280;14589;51.578;7.306;2023-08-06T10:08:37;99974.41;;;22.35;74.25
27040;BME280;14589;51.578;7.306;2023-08-06T10:11:11;99984.84;;;22.45;71.27
27040;BME280;14589;51.578;7.306;2023-08-06T10:13:43;99968.69;;;22.13;74.37
27040;BME280;14589;51.578;7.306;2023-08-06T10:16:14;99971.78;;;22.69;73.14
27040;BME280;14589;51.578;7.306;2023-08-06T10:18:47;99958.69;;;22.24;75.96
27040;BME280;14589;51.578;7.306;2023-08-06T10:21:18;99961.72;;;22.91;73.40
27040;BME280;14589;51.578;7.306;2023-08-06T10:23:53;99965.97;;;23.27;71.92
27040;BME280;14589;51.578;7.306;2023-08-06T10:26:28;99965.16;;;23.43;70.12
27040;BME280;14589;51.578;7.306;2023-08-06T10:28:58;99964.41;;;23.81;69.98
27040;BME280;14589;51.578;7.306;2023-08-06T10:32:01;99957.50;;;24.00;66.22
27040;BME280;14589;51.578;7.306;2023-08-06T10:34:55;99957.09;;;23.58;68.27
27040;BME280;14589;51.578;7.306;2023-08-06T10:37:37;99958.72;;;23.54;67.43
27040;BME280;14589;51.578;7.306;2023-08-06T10:40:08;99949.47;;;23.65;65.50
27040;BME280;14589;51.578;7.306;2023-08-06T10:42:40;99956.47;;;24.06;64.88
27040;BME280;14589;51.578;7.306;2023-08-06T10:45:19;99955.00;;;23.32;64.18
27040;BME280;14589;51.578;7.306;2023-08-06T10:47:50;99953.59;;;23.63;64.71
27040;BME280;14589;51.578;7.306;2023-08-06T10:50:20;99959.72;;;23.48;63.84
27040;BME280;14589;51.578;7.306;2023-08-06T10:52:51;99954.09;;;23.26;62.39
27040;BME280;14589;51.578;7.306;2023-08-06T10:55:26;99959.63;;;23.43;64.78
27040;BME280;14589;51.578;7.306;2023-08-06T10:57:57;99959.81;;;23.53;62.95
27040;BME280;14589;51.578;7.306;2023-08-06T11:00:28;99959.94;;;23.30;60.64
27040;BME280;14589;51.578;7.306;2023-08-06T11:02:58;99965.25;;;23.48;62.49
27040;BME280;14589;51.578;7.306;2023-08-06T11:05:29;99957.56;;;23.50;62.83
27040;BME280;14589;51.578;7.306;2023-08-06T11:07:59;99957.34;;;23.73;60.17
27040;BME280;14589;51.578;7.306;2023-08-06T11:10:32;99961.25;;;23.56;59.45
27040;BME280;14589;51.578;7.306;2023-08-06T11:13:03;99960.72;;;23.59;60.80
27040;BME280;14589;51.578;7.306;2023-08-06T11:15:34;99965.16;;;23.43;59.16
27040;BME280;14589;51.578;7.306;2023-08-06T11:18:05;99964.72;;;22.61;59.99
27040;BME280;14589;51.578;7.306;2023-08-06T11:20:36;99964.00;;;22.94;60.40
27040;BME280;14589;51.578;7.306;2023-08-06T11:23:09;99971.63;;;22.87;59.39
27040;BME280;14589;51.578;7.306;2023-08-06T11:25:46;99953.16;;;22.76;59.09
27040;BME280;14589;51.578;7.306;2023-08-06T11:28:19;99968.53;;;22.83;59.62
27040;BME280;14589;51.578;7.306;2023-08-06T11:30:52;99961.94;;;22.73;60.10
27040;BME280;14589;51.578;7.306;2023-08-06T11:33:26;99964.84;;;22.54;62.95
27040;BME280;14589;51.578;7.306;2023-08-06T11:35:58;99966.69;;;22.49;61.89
27040;BME280;14589;51.578;7.306;2023-08-06T11:38:29;99969.16;;;22.34;63.74
27040;BME280;14589;51.578;7.306;2023-08-06T11:41:00;99960.56;;;22.47;62.81
27040;BME280;14589;51.578;7.306;2023-08-06T11:43:31;99968.91;;;22.75;62.36
27040;BME280;14589;51.578;7.306;2023-08-06T11:46:01;99967.56;;;22.38;58.65
27040;BME280;14589;51.578;7.306;2023-08-06T11:48:31;99966.06;;;22.58;59.33
27040;BME280;14589;51.578;7.306;2023-08-06T11:51:02;99970.94;;;22.96;61.88
27040;BME280;14589;51.578;7.306;2023-08-06T11:53:32;99976.25;;;22.98;63.08
27040;BME280;14589;51.578;7.306;2023-08-06T11:56:03;99967.03;;;23.09;64.02
27040;BME280;14589;51.578;7.306;2023-08-06T11:58:33;99972.72;;;22.46;69.79
27040;BME280;14589;51.578;7.306;2023-08-06T12:01:04;99976.59;;;22.73;67.46
27040;BME280;14589;51.578;7.306;2023-08-06T12:03:41;99982.53;;;22.93;65.45
27040;BME280;14589;51.578;7.306;2023-08-06T12:06:11;99977.94;;;22.19;69.23
27040;BME280;14589;51.578;7.306;2023-08-06T12:08:42;99987.16;;;22.36;72.00
27040;BME280;14589;51.578;7.306;2023-08-06T12:11:12;99985.16;;;22.20;75.68
27040;BME280;14589;51.578;7.306;2023-08-06T12:13:43;99996.19;;;22.20;77.89
27040;BME280;14589;51.578;7.306;2023-08-06T12:16:13;99990.81;;;21.78;79.25
27040;BME280;14589;51.578;7.306;2023-08-06T12:18:44;100003.41;;;20.43;84.66
27040;BME280;14589;51.578;7.306;2023-08-06T12:21:15;100015.25;;;20.26;93.04
27040;BME280;14589;51.578;7.306;2023-08-06T12:23:45;100024.06;;;20.16;91.73
27040;BME280;14589;51.578;7.306;2023-08-06T12:26:16;100021.47;;;20.39;93.30
27040;BME280;14589;51.578;7.306;2023-08-06T12:28:46;100022.31;;;20.40;90.97
27040;BME280;14589;51.578;7.306;2023-08-06T12:31:16;100025.75;;;20.17;94.30
27040;BME280;14589;51.578;7.306;2023-08-06T12:33:47;100025.13;;;20.15;92.67
27040;BME280;14589;51.578;7.306;2023-08-06T12:36:17;100024.56;;;20.06;95.73
27040;BME280;14589;51.578;7.306;2023-08-06T12:38:47;100021.31;;;19.48;95.42
27040;BME280;14589;51.578;7.306;2023-08-06T12:41:18;100038.38;;;19.57;97.03
27040;BME280;14589;51.578;7.306;2023-08-06T12:43:48;100043.72;;;19.14;96.35
27040;BME280;14589;51.578;7.306;2023-08-06T12:46:18;100039.31;;;19.44;100.00
27040;BME280;14589;51.578;7.306;2023-08-06T12:48:49;100046.81;;;19.30;99.26
27040;BME280;14589;51.578;7.306;2023-08-06T12:51:19;100052.03;;;18.69;100.00
27040;BME280;14589;51.578;7.306;2023-08-06T12:53:50;100062.19;;;18.62;100.00
27040;BME280;14589;51.578;7.306;2023-08-06T12:56:20;100063.97;;;18.24;100.00
27040;BME280;14589;51.578;7.306;2023-08-06T12:58:50;100072.66;;;18.07;100.00
27040;BME280;14589;51.578;7.306;2023-08-06T13:01:21;100075.59;;;18.12;100.00
27040;BME280;14589;51.578;7.306;2023-08-06T13:03:51;100079.63;;;17.90;100.00
27040;BME280;14589;51.578;7.306;2023-08-06T13:06:21;100084.06;;;18.04;100.00
27040;BME280;14589;51.578;7.306;2023-08-06T13:08:52;100089.53;;;18.11;100.00
27040;BME280;14589;51.578;7.306;2023-08-06T13:11:23;100094.19;;;18.04;100.00
27040;BME280;14589;51.578;7.306;2023-08-06T13:13:53;100091.44;;;17.58;99.23
27040;BME280;14589;51.578;7.306;2023-08-06T13:16:23;100089.75;;;17.57;100.00